createdAt,value
2023-03-22T00:00:06.507Z,10.80
2023-03-22T00:02:33.604Z,10.70
2023-03-22T00:05:01.237Z,10.70
2023-03-22T00:07:28.264Z,10.60
2023-03-22T00:09:55.344Z,10.60
2023-03-22T00:12:22.556Z,10.60
2023-03-22T00:14:49.635Z,10.60
2023-03-22T00:17:16.778Z,10.50
2023-03-22T00:19:45.018Z,10.40
2023-03-22T00:22:14.472Z,10.40
2023-03-22T00:24:41.700Z,10.30
2023-03-22T00:27:08.943Z,10.30
2023-03-22T00:29:36.130Z,10.20
2023-03-22T00:32:04.390Z,10.20
2023-03-22T00:34:32.969Z,10.20
2023-03-22T00:37:00.330Z,10.10
2023-03-22T00:39:27.504Z,10.10
2023-03-22T00:41:54.669Z,10.10
2023-03-22T00:44:21.786Z,10.00
2023-03-22T00:46:48.993Z,10.00
2023-03-22T00:49:16.041Z,10.00
2023-03-22T00:51:43.147Z,9.90
2023-03-22T00:54:10.268Z,9.90
2023-03-22T00:56:38.248Z,9.80
2023-03-22T00:59:05.598Z,9.70
2023-03-22T01:01:32.918Z,9.70
2023-03-22T01:04:00.336Z,9.60
2023-03-22T01:06:27.368Z,9.50
2023-03-22T01:08:55.204Z,9.50
2023-03-22T01:11:22.360Z,9.50
2023-03-22T01:13:49.668Z,9.50
2023-03-22T01:16:16.878Z,9.50
2023-03-22T01:18:44.169Z,9.40
2023-03-22T01:21:11.421Z,9.20
2023-03-22T01:23:38.773Z,9.20
2023-03-22T01:26:06.349Z,9.10
2023-03-22T01:28:33.522Z,9.00
2023-03-22T01:31:04.182Z,9.00
2023-03-22T01:33:31.501Z,9.00
2023-03-22T01:35:58.695Z,9.20
2023-03-22T01:38:25.933Z,9.20
2023-03-22T01:40:53.157Z,9.30
2023-03-22T01:43:20.340Z,9.30
2023-03-22T01:45:51.821Z,9.30
2023-03-22T01:48:25.612Z,9.30
2023-03-22T01:51:12.472Z,9.30
2023-03-22T01:53:47.695Z,9.30
2023-03-22T01:56:15.356Z,9.30
2023-03-22T01:58:42.835Z,9.30
2023-03-22T02:01:11.210Z,9.20
2023-03-22T02:03:47.865Z,9.10
2023-03-22T02:06:15.407Z,8.90
2023-03-22T02:08:42.647Z,8.90
2023-03-22T02:11:24.774Z,8.70
2023-03-22T02:14:18.429Z,8.70
2023-03-22T02:17:13.638Z,8.60
2023-03-22T02:20:21.201Z,8.50
2023-03-22T02:22:50.036Z,8.40
2023-03-22T02:25:38.341Z,8.40
2023-03-22T02:28:26.318Z,8.30
2023-03-22T02:31:10.935Z,8.10
2023-03-22T02:33:53.110Z,8.00
2023-03-22T02:37:05.461Z,8.00
2023-03-22T02:39:51.232Z,7.90
2023-03-22T02:42:41.031Z,7.80
2023-03-22T02:45:14.436Z,7.70
2023-03-22T02:47:49.879Z,7.60
2023-03-22T02:50:40.479Z,7.60
2023-03-22T02:53:21.554Z,7.50
2023-03-22T02:56:26.701Z,7.50
2023-03-22T02:58:57.459Z,7.50
2023-03-22T03:01:39.665Z,7.40
2023-03-22T03:04:11.587Z,7.40
2023-03-22T03:06:46.225Z,7.40
2023-03-22T03:09:19.348Z,7.40
2023-03-22T03:11:52.842Z,7.30
2023-03-22T03:14:26.062Z,7.30
2023-03-22T03:17:22.068Z,7.30
2023-03-22T03:20:16.819Z,7.20
2023-03-22T03:22:49.930Z,7.20
2023-03-22T03:25:26.282Z,7.10
2023-03-22T03:28:30.331Z,7.00
2023-03-22T03:31:06.588Z,7.00
2023-03-22T03:33:40.191Z,7.00
2023-03-22T03:36:11.342Z,7.00
2023-03-22T03:38:42.108Z,7.00
2023-03-22T03:41:14.327Z,7.00
2023-03-22T03:43:43.370Z,7.00
2023-03-22T03:46:10.802Z,6.90
2023-03-22T03:48:39.787Z,6.90
2023-03-22T03:51:07.224Z,6.90
2023-03-22T03:53:34.506Z,6.80
2023-03-22T03:56:01.653Z,6.80
2023-03-22T03:58:30.870Z,6.80
2023-03-22T04:00:58.178Z,6.70
2023-03-22T04:03:25.849Z,6.70
2023-03-22T04:05:53.314Z,6.70
2023-03-22T04:08:20.534Z,6.70
2023-03-22T04:10:51.993Z,6.70
2023-03-22T04:13:24.648Z,6.60
2023-03-22T04:15:57.458Z,6.60
2023-03-22T04:18:24.485Z,6.60
2023-03-22T04:20:53.675Z,6.60
2023-03-22T04:23:23.265Z,6.50
2023-03-22T04:25:51.901Z,6.60
2023-03-22T04:28:21.804Z,6.50
2023-03-22T04:30:52.028Z,6.60
2023-03-22T04:33:23.073Z,6.40
2023-03-22T04:35:50.670Z,6.20
2023-03-22T04:38:18.548Z,6.20
2023-03-22T04:40:46.881Z,6.20
2023-03-22T04:43:15.948Z,6.20
2023-03-22T04:45:44.042Z,6.20
2023-03-22T04:48:11.343Z,6.10
2023-03-22T04:50:42.979Z,6.10
2023-03-22T04:53:12.411Z,6.10
2023-03-22T04:55:39.643Z,6.10
2023-03-22T04:58:07.110Z,6.10
2023-03-22T05:00:34.336Z,6.10
2023-03-22T05:03:01.853Z,6.20
2023-03-22T05:05:28.990Z,6.20
2023-03-22T05:07:56.430Z,6.20
2023-03-22T05:10:23.639Z,6.20
2023-03-22T05:12:51.022Z,6.30
2023-03-22T05:15:18.026Z,6.20
2023-03-22T05:17:45.196Z,6.20
2023-03-22T05:20:12.350Z,6.10
2023-03-22T05:22:41.116Z,6.10
2023-03-22T05:25:10.420Z,6.00
2023-03-22T05:27:38.994Z,6.00
2023-03-22T05:30:07.420Z,5.90
2023-03-22T05:32:37.537Z,5.90
2023-03-22T05:35:05.512Z,5.90
2023-03-22T05:37:32.698Z,5.80
2023-03-22T05:39:59.850Z,5.80
2023-03-22T05:42:27.311Z,5.80
2023-03-22T05:44:54.725Z,5.90
2023-03-22T05:47:22.205Z,5.80
2023-03-22T05:49:49.498Z,5.80
2023-03-22T05:52:16.591Z,5.80
2023-03-22T05:54:44.107Z,5.70
2023-03-22T05:57:11.480Z,5.70
2023-03-22T05:59:38.675Z,5.60
2023-03-22T06:02:06.466Z,5.70
2023-03-22T06:04:34.085Z,5.70
2023-03-22T06:07:01.423Z,5.70
2023-03-22T06:09:28.716Z,5.80
2023-03-22T06:11:55.868Z,5.80
2023-03-22T06:14:23.184Z,5.80
2023-03-22T06:16:52.104Z,5.90
2023-03-22T06:19:19.126Z,5.90
2023-03-22T06:21:46.353Z,5.90
2023-03-22T06:24:13.351Z,5.90
2023-03-22T06:26:40.595Z,5.90
2023-03-22T06:29:07.949Z,6.10
2023-03-22T06:31:35.392Z,6.10
2023-03-22T06:34:02.735Z,6.10
2023-03-22T06:36:30.344Z,6.20
2023-03-22T06:38:59.133Z,6.30
2023-03-22T06:41:26.546Z,6.30
2023-03-22T06:43:53.928Z,6.50
2023-03-22T06:46:21.222Z,6.60
2023-03-22T06:48:48.436Z,6.80
2023-03-22T06:51:15.965Z,6.90
2023-03-22T06:53:43.077Z,7.00
2023-03-22T06:56:10.187Z,7.10
2023-03-22T06:58:38.847Z,7.20
2023-03-22T07:01:08.308Z,7.20
2023-03-22T07:03:35.704Z,7.20
2023-03-22T07:06:06.975Z,7.20
2023-03-22T07:08:35.978Z,7.30
2023-03-22T07:11:03.718Z,7.20
2023-03-22T07:13:30.719Z,7.30
2023-03-22T07:16:02.577Z,7.40
2023-03-22T07:18:30.533Z,7.40
2023-03-22T07:20:57.650Z,7.50
2023-03-22T07:23:24.794Z,7.60
2023-03-22T07:25:52.289Z,7.70
2023-03-22T07:28:19.430Z,7.80
2023-03-22T07:30:46.563Z,7.90
2023-03-22T07:33:13.928Z,8.00
2023-03-22T07:35:43.721Z,8.10
2023-03-22T07:38:12.385Z,8.20
2023-03-22T07:40:40.047Z,8.30
2023-03-22T07:43:07.414Z,8.40
2023-03-22T07:45:34.814Z,8.40
2023-03-22T07:48:02.165Z,8.40
2023-03-22T07:50:29.427Z,8.50
2023-03-22T07:52:56.459Z,8.50
2023-03-22T07:55:23.532Z,8.60
2023-03-22T07:57:51.636Z,8.70
2023-03-22T08:00:19.054Z,8.80
2023-03-22T08:02:46.377Z,8.90
2023-03-22T08:05:13.704Z,9.00
2023-03-22T08:07:41.377Z,9.10
2023-03-22T08:10:08.890Z,9.20
2023-03-22T08:12:36.043Z,9.30
2023-03-22T08:15:03.376Z,9.50
2023-03-22T08:17:30.729Z,9.60
2023-03-22T08:19:58.149Z,9.70
2023-03-22T08:22:25.970Z,9.80
2023-03-22T08:24:53.440Z,9.90
2023-03-22T08:27:21.004Z,10.10
2023-03-22T08:29:48.901Z,10.20
2023-03-22T08:32:17.043Z,10.50
2023-03-22T08:34:45.053Z,10.70
2023-03-22T08:37:13.127Z,10.90
2023-03-22T08:39:40.363Z,11.10
2023-03-22T08:42:07.467Z,11.40
2023-03-22T08:44:34.471Z,11.70
2023-03-22T08:47:03.129Z,11.90
2023-03-22T08:49:31.510Z,12.20
2023-03-22T08:51:58.605Z,12.50
2023-03-22T08:54:28.211Z,12.90
2023-03-22T08:56:55.300Z,13.30
2023-03-22T08:59:22.380Z,13.60
2023-03-22T09:01:49.699Z,14.00
2023-03-22T09:04:16.800Z,14.40
2023-03-22T09:06:45.416Z,14.60
2023-03-22T09:09:13.055Z,14.80
2023-03-22T09:11:41.407Z,15.10
2023-03-22T09:14:11.750Z,15.20
2023-03-22T09:16:39.051Z,15.40
2023-03-22T09:19:06.756Z,15.60
2023-03-22T09:21:33.755Z,15.80
2023-03-22T09:24:00.903Z,16.10
2023-03-22T09:26:27.854Z,16.40
2023-03-22T09:28:54.949Z,16.60
2023-03-22T09:31:22.219Z,16.90
2023-03-22T09:33:49.696Z,17.10
2023-03-22T09:36:17.069Z,17.20
2023-03-22T09:38:43.926Z,17.20
2023-03-22T09:41:16.265Z,17.40
2023-03-22T09:43:50.083Z,17.60
2023-03-22T09:46:33.839Z,17.80
2023-03-22T09:49:02.776Z,17.90
2023-03-22T09:52:02.384Z,18.10
2023-03-22T09:54:38.691Z,18.30
2023-03-22T09:57:21.254Z,18.40
2023-03-22T10:00:00.854Z,18.60
2023-03-22T10:02:42.581Z,18.80
2023-03-22T10:05:18.058Z,18.80
2023-03-22T10:08:11.756Z,18.90
2023-03-22T10:10:43.276Z,19.00
2023-03-22T10:13:36.162Z,19.30
2023-03-22T10:16:12.459Z,19.50
2023-03-22T10:18:47.086Z,19.40
2023-03-22T10:21:17.228Z,19.10
2023-03-22T10:24:03.912Z,19.00
2023-03-22T10:26:37.028Z,19.30
2023-03-22T10:29:32.455Z,19.30
2023-03-22T10:32:13.730Z,19.40
2023-03-22T10:34:40.999Z,19.40
2023-03-22T10:37:13.682Z,19.70
2023-03-22T10:39:46.475Z,19.70
2023-03-22T10:42:16.975Z,19.80
2023-03-22T10:44:57.210Z,19.90
2023-03-22T10:47:58.073Z,20.00
2023-03-22T10:50:45.280Z,20.20
2023-03-22T10:53:34.946Z,20.40
2023-03-22T10:56:01.939Z,20.40
2023-03-22T10:58:31.284Z,20.50
2023-03-22T11:01:03.589Z,20.70
2023-03-22T11:03:36.979Z,20.90
2023-03-22T11:06:10.679Z,20.80
2023-03-22T11:08:48.815Z,21.00
2023-03-22T11:11:22.694Z,21.00
2023-03-22T11:14:14.097Z,21.10
2023-03-22T11:17:08.294Z,21.20
2023-03-22T11:19:53.913Z,21.40
2023-03-22T11:22:41.216Z,21.50
2023-03-22T11:25:28.188Z,21.50
2023-03-22T11:28:05.946Z,21.30
2023-03-22T11:30:34.592Z,21.10
2023-03-22T11:33:22.030Z,21.20
2023-03-22T11:36:01.859Z,21.20
2023-03-22T11:38:37.881Z,21.40
2023-03-22T11:41:20.312Z,21.70
2023-03-22T11:43:56.939Z,21.80
2023-03-22T11:46:24.468Z,21.80
2023-03-22T11:48:58.333Z,21.90
2023-03-22T11:51:32.564Z,22.10
2023-03-22T11:54:09.362Z,22.20
2023-03-22T11:56:42.384Z,22.30
2023-03-22T11:59:13.669Z,22.40
2023-03-22T12:01:43.092Z,22.40
2023-03-22T12:04:16.773Z,22.50
2023-03-22T12:06:43.837Z,22.40
2023-03-22T12:09:25.987Z,22.40
2023-03-22T12:11:57.342Z,22.10
2023-03-22T12:14:46.871Z,22.10
2023-03-22T12:17:26.121Z,22.00
2023-03-22T12:20:08.594Z,21.90
2023-03-22T12:22:51.095Z,21.80
2023-03-22T12:25:22.797Z,21.90
2023-03-22T12:27:59.472Z,21.90
2023-03-22T12:30:32.147Z,21.90
2023-03-22T12:33:03.752Z,21.70
2023-03-22T12:35:36.894Z,21.90
2023-03-22T12:38:20.906Z,22.10
2023-03-22T12:40:49.713Z,22.10
2023-03-22T12:43:41.205Z,22.00
2023-03-22T12:46:16.808Z,21.70
2023-03-22T12:48:48.492Z,21.90
2023-03-22T12:51:15.932Z,22.20
2023-03-22T12:53:47.231Z,22.50
2023-03-22T12:56:26.675Z,22.80
2023-03-22T12:59:02.578Z,23.00
2023-03-22T13:01:44.113Z,23.10
2023-03-22T13:04:26.054Z,22.90
2023-03-22T13:06:53.564Z,22.90
2023-03-22T13:09:40.546Z,23.10
2023-03-22T13:12:19.119Z,23.10
2023-03-22T13:14:57.976Z,23.30
2023-03-22T13:17:25.483Z,23.10
2023-03-22T13:20:23.544Z,22.90
2023-03-22T13:22:50.516Z,22.70
2023-03-22T13:25:18.887Z,22.80
2023-03-22T13:27:46.020Z,23.00
2023-03-22T13:30:41.702Z,22.80
2023-03-22T13:33:11.799Z,22.90
2023-03-22T13:35:45.886Z,23.00
2023-03-22T13:38:19.791Z,22.80
2023-03-22T13:41:25.236Z,22.90
2023-03-22T13:43:55.343Z,22.90
2023-03-22T13:46:22.612Z,22.80
2023-03-22T13:48:52.833Z,22.70
2023-03-22T13:51:23.068Z,22.60
2023-03-22T13:54:07.036Z,22.50
2023-03-22T13:56:43.152Z,22.50
2023-03-22T13:59:30.333Z,22.50
2023-03-22T14:02:18.719Z,22.60
2023-03-22T14:04:50.153Z,22.80
2023-03-22T14:07:37.360Z,22.60
2023-03-22T14:10:32.594Z,22.00
2023-03-22T14:13:17.289Z,22.20
2023-03-22T14:15:52.181Z,22.40
2023-03-22T14:18:34.296Z,22.30
2023-03-22T14:21:11.626Z,22.50
